createdAt,value
2022-09-24T00:00:29.917Z,8.39
2022-09-24T00:03:39.276Z,8.42
2022-09-24T00:06:47.471Z,8.36
2022-09-24T00:09:53.888Z,8.38
2022-09-24T00:12:59.708Z,8.38
2022-09-24T00:16:08.573Z,8.32
2022-09-24T00:19:17.437Z,8.36
2022-09-24T00:22:23.844Z,8.37
2022-09-24T00:25:45.349Z,8.33
2022-09-24T00:28:52.731Z,8.32
2022-09-24T00:31:58.317Z,8.30
2022-09-24T00:35:08.245Z,8.29
2022-09-24T00:38:13.929Z,8.26
2022-09-24T00:41:21.172Z,8.23
2022-09-24T00:44:57.940Z,8.28
2022-09-24T00:48:05.782Z,8.25
2022-09-24T00:51:17.124Z,8.23
2022-09-24T00:54:28.999Z,8.18
2022-09-24T00:57:38.072Z,8.14
2022-09-24T01:00:47.346Z,8.07
2022-09-24T01:03:56.158Z,8.02
2022-09-24T01:07:05.713Z,7.98
2022-09-24T01:10:12.439Z,7.92
2022-09-24T01:13:43.317Z,7.87
2022-09-24T01:16:55.970Z,7.80
2022-09-24T01:20:31.261Z,7.74
2022-09-24T01:23:59.338Z,7.64
2022-09-24T01:27:13.027Z,7.60
2022-09-24T01:30:22.242Z,7.54
2022-09-24T01:33:33.998Z,7.48
2022-09-24T01:36:42.749Z,7.45
2022-09-24T01:39:50.344Z,7.41
2022-09-24T01:42:58.172Z,7.39
2022-09-24T01:46:09.320Z,7.38
2022-09-24T01:49:14.914Z,7.34
2022-09-24T01:52:28.345Z,7.30
2022-09-24T01:55:38.606Z,7.25
2022-09-24T01:58:52.591Z,7.21
2022-09-24T02:02:09.266Z,7.19
2022-09-24T02:05:24.933Z,7.13
2022-09-24T02:08:36.175Z,7.06
2022-09-24T02:11:42.660Z,7.02
2022-09-24T02:14:52.071Z,6.99
2022-09-24T02:18:05.912Z,6.97
2022-09-24T02:21:14.501Z,6.94
2022-09-24T02:24:26.048Z,6.93
2022-09-24T02:27:31.732Z,6.95
2022-09-24T02:30:44.977Z,6.96
2022-09-24T02:34:10.277Z,6.95
2022-09-24T02:37:20.508Z,6.93
2022-09-24T02:40:26.184Z,6.93
2022-09-24T02:43:35.144Z,6.92
2022-09-24T02:46:42.270Z,6.91
2022-09-24T02:49:51.511Z,6.91
2022-09-24T02:52:57.100Z,6.89
2022-09-24T02:56:03.945Z,6.87
2022-09-24T02:59:10.964Z,6.85
2022-09-24T03:02:17.535Z,6.84
2022-09-24T03:05:26.202Z,6.87
2022-09-24T03:08:35.970Z,6.87
2022-09-24T03:11:41.654Z,6.86
2022-09-24T03:14:48.099Z,6.89
2022-09-24T03:17:53.955Z,6.89
2022-09-24T03:21:05.479Z,6.90
2022-09-24T03:24:11.097Z,6.87
2022-09-24T03:27:17.680Z,6.89
2022-09-24T03:30:53.683Z,6.86
2022-09-24T03:34:00.174Z,6.90
2022-09-24T03:37:10.137Z,6.90
2022-09-24T03:40:16.654Z,6.89
2022-09-24T03:43:23.333Z,6.87
2022-09-24T03:46:30.611Z,6.88
2022-09-24T03:49:36.335Z,6.93
2022-09-24T03:52:45.627Z,6.96
2022-09-24T03:55:59.086Z,6.99
2022-09-24T03:59:06.128Z,6.98
2022-09-24T04:02:12.208Z,6.99
2022-09-24T04:05:19.031Z,7.01
2022-09-24T04:08:27.404Z,7.02
2022-09-24T04:11:35.462Z,7.00
2022-09-24T04:14:41.009Z,7.00
2022-09-24T04:17:53.192Z,7.01
2022-09-24T04:21:02.522Z,6.99
2022-09-24T04:24:13.440Z,6.99
2022-09-24T04:27:19.249Z,6.97
2022-09-24T04:30:27.608Z,6.96
2022-09-24T04:33:33.190Z,6.94
2022-09-24T04:36:39.736Z,6.93
2022-09-24T04:39:48.361Z,6.89
2022-09-24T04:42:55.081Z,6.85
2022-09-24T04:46:02.906Z,6.84
2022-09-24T04:49:09.775Z,6.83
2022-09-24T04:52:15.990Z,6.82
2022-09-24T04:55:39.557Z,6.83
2022-09-24T04:58:45.137Z,6.82
2022-09-24T05:01:51.765Z,6.83
2022-09-24T05:04:57.887Z,6.86
2022-09-24T05:08:05.560Z,6.91
2022-09-24T05:11:14.132Z,6.96
2022-09-24T05:14:20.562Z,6.99
2022-09-24T05:17:26.156Z,7.04
2022-09-24T05:20:32.595Z,7.10
2022-09-24T05:23:38.136Z,7.16
2022-09-24T05:27:02.911Z,7.26
2022-09-24T05:30:09.218Z,7.31
2022-09-24T05:33:15.654Z,7.41
2022-09-24T05:36:21.451Z,7.53
2022-09-24T05:39:33.452Z,7.65
2022-09-24T05:42:43.312Z,7.72
2022-09-24T05:45:50.758Z,7.80
2022-09-24T05:48:56.334Z,7.89
2022-09-24T05:52:03.105Z,8.01
2022-09-24T05:55:10.194Z,8.09
2022-09-24T05:58:19.493Z,8.14
2022-09-24T06:01:25.130Z,8.23
2022-09-24T06:04:31.548Z,8.29
2022-09-24T06:07:37.116Z,8.35
2022-09-24T06:10:43.961Z,8.42
2022-09-24T06:13:52.584Z,8.52
2022-09-24T06:17:00.051Z,8.60
2022-09-24T06:20:07.398Z,8.70
2022-09-24T06:23:14.545Z,8.80
2022-09-24T06:26:20.150Z,8.90
2022-09-24T06:29:29.399Z,9.02
2022-09-24T06:32:35.013Z,9.07
2022-09-24T06:35:42.972Z,9.16
2022-09-24T06:38:48.516Z,9.23
2022-09-24T06:41:54.954Z,9.31
2022-09-24T06:45:04.507Z,9.38
2022-09-24T06:48:12.620Z,9.44
2022-09-24T06:51:18.189Z,9.56
2022-09-24T06:54:25.017Z,9.65
2022-09-24T06:57:30.674Z,9.73
2022-09-24T07:00:40.701Z,9.79
2022-09-24T07:03:46.320Z,9.89
2022-09-24T07:07:13.628Z,10.04
2022-09-24T07:10:19.440Z,10.26
2022-09-24T07:13:26.209Z,10.45
2022-09-24T07:16:34.553Z,10.62
2022-09-24T07:19:41.712Z,10.78
2022-09-24T07:22:47.354Z,10.91
2022-09-24T07:25:58.520Z,11.07
2022-09-24T07:29:04.110Z,11.16
2022-09-24T07:32:13.777Z,11.29
2022-09-24T07:35:21.447Z,11.40
2022-09-24T07:38:28.578Z,11.52
2022-09-24T07:41:37.441Z,11.62
2022-09-24T07:44:48.361Z,11.67
2022-09-24T07:48:03.687Z,11.77
2022-09-24T07:51:12.811Z,11.89
2022-09-24T07:54:18.494Z,11.93
2022-09-24T07:57:26.738Z,11.99
2022-09-24T08:00:32.266Z,12.07
2022-09-24T08:03:41.543Z,12.19
2022-09-24T08:06:47.812Z,12.35
2022-09-24T08:09:54.296Z,12.51
2022-09-24T08:13:00.019Z,12.61
2022-09-24T08:16:08.800Z,12.70
2022-09-24T08:19:17.276Z,12.78
2022-09-24T08:22:23.666Z,12.82
2022-09-24T08:25:29.235Z,12.92
2022-09-24T08:28:36.218Z,13.07
2022-09-24T08:31:42.823Z,13.23
2022-09-24T08:34:52.841Z,13.40
2022-09-24T08:38:02.801Z,13.47
2022-09-24T08:41:27.320Z,13.56
2022-09-24T08:44:55.265Z,13.63
2022-09-24T08:48:07.362Z,13.68
2022-09-24T08:51:21.202Z,13.77
2022-09-24T08:54:30.666Z,13.79
2022-09-24T08:57:47.776Z,13.82
2022-09-24T09:01:00.370Z,13.91
2022-09-24T09:04:22.059Z,14.00
2022-09-24T09:07:35.441Z,14.08
2022-09-24T09:10:44.266Z,14.10
2022-09-24T09:13:59.046Z,14.16
2022-09-24T09:17:07.127Z,14.21
2022-09-24T09:20:20.358Z,14.32
2022-09-24T09:23:35.671Z,14.39
2022-09-24T09:26:43.152Z,14.48
2022-09-24T09:29:53.435Z,14.59
2022-09-24T09:33:26.741Z,14.71
2022-09-24T09:36:45.541Z,14.81
2022-09-24T09:40:02.537Z,14.94
2022-09-24T09:43:14.302Z,15.06
2022-09-24T09:46:26.457Z,15.18
2022-09-24T09:49:38.705Z,15.29
2022-09-24T09:52:45.120Z,15.38
2022-09-24T09:56:00.398Z,15.41
2022-09-24T09:59:11.042Z,15.47
2022-09-24T10:02:25.995Z,15.51
2022-09-24T10:05:33.935Z,15.54
2022-09-24T10:08:40.690Z,15.62
2022-09-24T10:11:50.214Z,15.70
2022-09-24T10:15:02.811Z,15.80
2022-09-24T10:18:09.804Z,15.88
2022-09-24T10:21:28.327Z,15.89
2022-09-24T10:24:35.277Z,15.90
2022-09-24T10:27:44.524Z,15.94
2022-09-24T10:30:54.353Z,15.98
2022-09-24T10:34:03.452Z,16.01
2022-09-24T10:37:19.132Z,16.06
2022-09-24T10:40:28.645Z,16.12
2022-09-24T10:43:38.908Z,16.20
2022-09-24T10:47:08.211Z,16.28
2022-09-24T10:50:29.173Z,16.35
2022-09-24T10:53:51.806Z,16.46
2022-09-24T10:57:00.416Z,16.62
2022-09-24T11:00:14.526Z,16.61
2022-09-24T11:03:48.672Z,16.60
2022-09-24T11:07:12.064Z,16.56
2022-09-24T11:10:51.947Z,16.60
2022-09-24T11:14:06.163Z,16.65
2022-09-24T11:17:36.427Z,16.67
2022-09-24T11:20:46.960Z,16.65
2022-09-24T11:24:23.700Z,16.72
2022-09-24T11:27:52.085Z,16.88
2022-09-24T11:31:08.677Z,17.01
2022-09-24T11:34:40.704Z,17.19
2022-09-24T11:37:59.120Z,17.33
2022-09-24T11:41:21.514Z,17.54
2022-09-24T11:45:02.850Z,17.81
2022-09-24T11:48:24.592Z,17.96
2022-09-24T11:51:49.394Z,18.04
2022-09-24T11:55:05.732Z,18.08
2022-09-24T11:58:19.636Z,18.11
2022-09-24T12:01:29.894Z,18.13
2022-09-24T12:04:54.088Z,18.29
2022-09-24T12:08:09.834Z,18.40
2022-09-24T12:11:22.368Z,18.46
2022-09-24T12:14:32.027Z,18.40
2022-09-24T12:17:47.059Z,18.36
2022-09-24T12:20:58.036Z,18.32
2022-09-24T12:24:14.127Z,18.23
2022-09-24T12:27:22.363Z,18.25
2022-09-24T12:30:53.596Z,18.27
2022-09-24T12:34:08.019Z,18.37
2022-09-24T12:37:20.380Z,18.24
2022-09-24T12:41:02.885Z,17.97
2022-09-24T12:44:22.329Z,17.76
2022-09-24T12:47:31.756Z,17.69
2022-09-24T12:50:40.712Z,17.68
2022-09-24T12:53:57.932Z,17.69
2022-09-24T12:57:24.272Z,17.68
2022-09-24T13:00:41.485Z,17.67
2022-09-24T13:03:48.011Z,17.70
2022-09-24T13:06:53.786Z,17.72
2022-09-24T13:10:00.281Z,17.87
2022-09-24T13:13:26.337Z,17.99
2022-09-24T13:16:33.119Z,18.05
2022-09-24T13:19:42.510Z,18.05
2022-09-24T13:23:01.053Z,18.10
2022-09-24T13:26:09.341Z,18.05
2022-09-24T13:29:29.598Z,18.03
2022-09-24T13:32:39.898Z,17.94
2022-09-24T13:35:50.406Z,17.86
2022-09-24T13:39:00.102Z,17.72
2022-09-24T13:42:20.638Z,17.70
2022-09-24T13:45:29.792Z,17.61
2022-09-24T13:48:40.126Z,17.57
2022-09-24T13:51:49.759Z,17.54
2022-09-24T13:55:00.880Z,17.59
2022-09-24T13:58:07.326Z,17.64
2022-09-24T14:01:19.518Z,17.66
2022-09-24T14:04:25.848Z,17.65
2022-09-24T14:07:33.010Z,17.71
2022-09-24T14:10:40.184Z,17.75
2022-09-24T14:13:47.446Z,17.76
2022-09-24T14:16:56.891Z,17.79
2022-09-24T14:20:03.470Z,17.83
2022-09-24T14:23:09.351Z,17.78
2022-09-24T14:26:28.480Z,17.72
2022-09-24T14:29:46.995Z,17.67
2022-09-24T14:33:00.516Z,17.67
2022-09-24T14:36:07.905Z,17.63
2022-09-24T14:39:15.425Z,17.59
2022-09-24T14:42:28.341Z,17.57
2022-09-24T14:45:37.965Z,17.54
2022-09-24T14:48:46.492Z,17.44
2022-09-24T14:51:57.816Z,17.35
2022-09-24T14:55:19.592Z,17.32
2022-09-24T14:58:37.347Z,17.36
2022-09-24T15:01:43.100Z,17.34
2022-09-24T15:04:56.246Z,17.35
2022-09-24T15:08:23.128Z,17.32
2022-09-24T15:11:31.661Z,17.23
2022-09-24T15:14:39.137Z,17.12
2022-09-24T15:17:47.690Z,17.08
2022-09-24T15:20:57.162Z,17.05
2022-09-24T15:24:03.847Z,16.93
2022-09-24T15:27:19.141Z,16.86
2022-09-24T15:30:25.733Z,16.79
2022-09-24T15:33:31.267Z,16.72
2022-09-24T15:36:40.633Z,16.63
2022-09-24T15:39:49.382Z,16.57
2022-09-24T15:42:56.173Z,16.56
2022-09-24T15:46:03.013Z,16.53
2022-09-24T15:49:09.532Z,16.47
2022-09-24T15:52:24.670Z,16.42
2022-09-24T15:55:31.906Z,16.37
2022-09-24T15:58:37.843Z,16.33
2022-09-24T16:01:44.994Z,16.26
2022-09-24T16:04:51.069Z,16.22
2022-09-24T16:08:00.265Z,16.16
2022-09-24T16:11:09.164Z,16.11
2022-09-24T16:14:15.778Z,16.03
2022-09-24T16:17:21.415Z,15.92
2022-09-24T16:20:27.894Z,15.80
2022-09-24T16:23:36.514Z,15.70
2022-09-24T16:26:43.451Z,15.59
2022-09-24T16:29:51.217Z,15.48
2022-09-24T16:32:57.612Z,15.42
2022-09-24T16:36:07.733Z,15.36
2022-09-24T16:39:17.810Z,15.26
2022-09-24T16:42:26.464Z,15.16
2022-09-24T16:45:34.565Z,15.05
2022-09-24T16:48:40.786Z,14.96
2022-09-24T16:51:47.209Z,14.84
2022-09-24T16:54:55.539Z,14.69
2022-09-24T16:58:02.853Z,14.57
2022-09-24T17:01:09.605Z,14.48
2022-09-24T17:04:16.230Z,14.42
2022-09-24T17:07:21.845Z,14.35
2022-09-24T17:10:31.153Z,14.26
2022-09-24T17:13:36.791Z,14.21
2022-09-24T17:16:43.624Z,14.14
2022-09-24T17:19:49.186Z,14.06
2022-09-24T17:22:56.878Z,14.00
2022-09-24T17:26:11.703Z,13.96
2022-09-24T17:29:20.788Z,13.89
2022-09-24T17:32:26.961Z,13.89
2022-09-24T17:35:33.673Z,13.88
2022-09-24T17:38:39.975Z,13.88
2022-09-24T17:41:49.208Z,13.85
2022-09-24T17:44:54.783Z,13.79
2022-09-24T17:48:03.257Z,13.69
2022-09-24T17:51:10.829Z,13.64
2022-09-24T17:54:19.189Z,13.59
2022-09-24T17:57:29.499Z,13.54
2022-09-24T18:00:35.884Z,13.49
2022-09-24T18:03:42.270Z,13.45
2022-09-24T18:06:50.321Z,13.40
2022-09-24T18:09:56.309Z,13.37
2022-09-24T18:13:06.281Z,13.35
2022-09-24T18:16:14.278Z,13.29
2022-09-24T18:19:22.803Z,13.23
2022-09-24T18:22:28.404Z,13.17
2022-09-24T18:25:34.874Z,13.14
2022-09-24T18:28:44.733Z,13.13
2022-09-24T18:31:51.888Z,13.09
2022-09-24T18:34:57.507Z,13.07
2022-09-24T18:38:04.134Z,13.07
2022-09-24T18:41:12.070Z,13.03
2022-09-24T18:44:21.584Z,12.96
2022-09-24T18:47:27.174Z,12.92
2022-09-24T18:50:33.736Z,12.86
2022-09-24T18:53:39.358Z,12.85
2022-09-24T18:56:46.084Z,12.82
2022-09-24T18:59:54.397Z,12.80
2022-09-24T19:03:01.022Z,12.77
2022-09-24T19:06:08.438Z,12.75
2022-09-24T19:09:17.537Z,12.73
2022-09-24T19:12:23.210Z,12.66
2022-09-24T19:15:32.676Z,12.61
2022-09-24T19:18:38.652Z,12.55
2022-09-24T19:21:45.397Z,12.51
2022-09-24T19:24:52.257Z,12.50
2022-09-24T19:27:58.780Z,12.49
2022-09-24T19:31:07.545Z,12.46
2022-09-24T19:34:15.686Z,12.44
2022-09-24T19:37:21.343Z,12.42
2022-09-24T19:40:28.041Z,12.39
2022-09-24T19:43:34.346Z,12.36
2022-09-24T19:46:44.045Z,12.34
2022-09-24T19:49:49.727Z,12.32
2022-09-24T19:52:56.219Z,12.32
2022-09-24T19:56:03.082Z,12.29
2022-09-24T19:59:09.710Z,12.31
2022-09-24T20:02:18.534Z,12.31
2022-09-24T20:05:25.119Z,12.32
2022-09-24T20:08:30.994Z,12.31
2022-09-24T20:11:38.012Z,12.33
2022-09-24T20:14:44.021Z,12.29
2022-09-24T20:17:53.802Z,12.27
2022-09-24T20:20:59.361Z,12.23
2022-09-24T20:24:07.328Z,12.25
2022-09-24T20:27:30.750Z,12.22
2022-09-24T20:30:38.291Z,12.19
2022-09-24T20:33:46.710Z,12.18
2022-09-24T20:36:53.691Z,12.13
2022-09-24T20:39:59.481Z,12.11
2022-09-24T20:43:06.775Z,12.03
2022-09-24T20:46:14.308Z,11.98
2022-09-24T20:49:25.249Z,11.93
2022-09-24T20:52:30.782Z,11.83
2022-09-24T20:55:37.416Z,11.74
2022-09-24T20:58:44.348Z,11.67
2022-09-24T21:01:51.220Z,11.60
2022-09-24T21:04:59.644Z,11.55
2022-09-24T21:08:08.885Z,11.48
2022-09-24T21:11:18.206Z,11.41
2022-09-24T21:14:26.350Z,11.35
2022-09-24T21:17:31.929Z,11.30
2022-09-24T21:20:41.146Z,11.26
2022-09-24T21:23:47.648Z,11.22
2022-09-24T21:26:54.416Z,11.18
2022-09-24T21:30:00.128Z,11.15
2022-09-24T21:33:07.581Z,11.12
2022-09-24T21:36:18.744Z,11.10
2022-09-24T21:39:27.479Z,10.99
2022-09-24T21:42:34.533Z,11.02
2022-09-24T21:45:41.217Z,10.94
2022-09-24T21:48:46.797Z,10.91
2022-09-24T21:51:57.862Z,10.87
2022-09-24T21:55:03.446Z,10.81
2022-09-24T21:58:10.002Z,10.81
2022-09-24T22:01:19.349Z,10.77
2022-09-24T22:04:26.109Z,10.73
2022-09-24T22:07:34.543Z,10.69
2022-09-24T22:10:41.687Z,10.64
2022-09-24T22:13:48.024Z,10.60
2022-09-24T22:16:55.498Z,10.56
2022-09-24T22:20:01.429Z,10.53
2022-09-24T22:23:11.895Z,10.50
2022-09-24T22:26:18.827Z,10.48
2022-09-24T22:29:25.836Z,10.48
2022-09-24T22:32:31.656Z,10.49
2022-09-24T22:35:50.685Z,10.49
2022-09-24T22:39:00.418Z,10.49
2022-09-24T22:42:08.843Z,10.43
2022-09-24T22:45:14.912Z,10.44
2022-09-24T22:48:21.319Z,10.43
2022-09-24T22:51:28.455Z,10.46
2022-09-24T22:54:37.621Z,10.46
2022-09-24T22:57:43.230Z,10.47
2022-09-24T23:00:49.749Z,10.43
2022-09-24T23:03:56.934Z,10.41
2022-09-24T23:07:03.561Z,10.38
2022-09-24T23:10:13.946Z,10.37
2022-09-24T23:13:20.430Z,10.34
2022-09-24T23:16:28.056Z,10.32
2022-09-24T23:19:46.599Z,10.29
2022-09-24T23:22:52.299Z,10.29
2022-09-24T23:26:08.103Z,10.26
2022-09-24T23:29:14.269Z,10.25
2022-09-24T23:32:21.530Z,10.25
2022-09-24T23:35:27.613Z,10.26
2022-09-24T23:38:34.014Z,10.22
2022-09-24T23:41:42.501Z,10.21
2022-09-24T23:44:49.569Z,10.22
2022-09-24T23:47:55.130Z,10.24
2022-09-24T23:51:02.575Z,10.22
2022-09-24T23:54:08.804Z,10.23
2022-09-24T23:57:18.496Z,10.24
